Time;durP1;ratioP1;P1;durP2;ratioP2;P2;SDS_P1;SDS_P2;PMS_P1;PMS_P2;Temp;Humidity;BMP_temperature;BMP_pressure;BME280_temperature;BME280_humidity;BME280_pressure;Samples;Min_cycle;Max_cycle;Signal;HPM_P1;HPM_P2
2022/05/05 00:02:11;;;;;;;340.03;93.37;;;;;;;;;;5036173;28;20785;-71
2022/05/05 00:04:38;;;;;;;332.80;93.97;;;;;;;;;;5035635;28;20896;-71
2022/05/05 00:07:06;;;;;;;334.57;92.93;;;;;;;;;;5035616;28;20814;-71
2022/05/05 00:09:34;;;;;;;315.40;96.27;;;;;;;;;;5027997;28;20563;-71
2022/05/05 00:14:49;;;;;;;328.60;90.37;;;;;;;;;;5035941;28;21010;-71
2022/05/05 00:17:19;;;;;;;341.93;92.00;;;;;;;;;;5035376;28;20545;-71
2022/05/05 00:19:46;;;;;;;362.30;93.03;;;;;;;;;;5035602;28;20501;-71
2022/05/05 00:22:14;;;;;;;354.70;93.30;;;;;;;;;;5035904;28;20477;-71
2022/05/05 00:24:42;;;;;;;365.53;96.30;;;;;;;;;;5035784;28;20458;-71
2022/05/05 00:27:10;;;;;;;358.53;94.47;;;;;;;;;;5035606;28;20862;-71
2022/05/05 00:29:38;;;;;;;350.10;92.87;;;;;;;;;;5036095;28;20465;-70
2022/05/05 00:32:06;;;;;;;357.33;92.57;;;;;;;;;;5035949;28;20501;-71
2022/05/05 00:34:35;;;;;;;359.60;91.70;;;;;;;;;;5035519;28;20770;-71
2022/05/05 00:37:03;;;;;;;350.43;91.50;;;;;;;;;;5036213;28;20458;-70
2022/05/05 00:39:31;;;;;;;365.93;92.60;;;;;;;;;;5035335;28;20494;-70
2022/05/05 00:42:00;;;;;;;362.90;94.50;;;;;;;;;;5035748;28;20450;-72
2022/05/05 00:44:28;;;;;;;346.00;89.60;;;;;;;;;;5035522;28;20520;-71
2022/05/05 00:46:56;;;;;;;346.03;90.07;;;;;;;;;;5033285;28;20458;-71
2022/05/05 00:49:24;;;;;;;351.00;88.50;;;;;;;;;;5035493;28;20529;-72
2022/05/05 00:51:54;;;;;;;360.80;94.47;;;;;;;;;;5034986;28;20458;-72
2022/05/05 00:54:22;;;;;;;358.57;92.10;;;;;;;;;;5035118;28;20481;-71
2022/05/05 00:56:49;;;;;;;358.17;92.30;;;;;;;;;;5027733;28;20465;-72
2022/05/05 00:59:18;;;;;;;353.73;89.70;;;;;;;;;;5035093;28;20501;-72
2022/05/05 01:01:45;;;;;;;342.27;90.43;;;;;;;;;;5034437;28;20546;-72
2022/05/05 01:04:16;;;;;;;353.00;95.67;;;;;;;;;;5036019;28;20465;-72
2022/05/05 01:06:44;;;;;;;343.00;87.40;;;;;;;;;;5035198;28;20458;-72
2022/05/05 01:09:13;;;;;;;331.37;86.40;;;;;;;;;;5035690;28;20446;-72
2022/05/05 01:11:41;;;;;;;285.97;85.93;;;;;;;;;;5035990;28;20459;-72
2022/05/05 01:14:09;;;;;;;333.43;89.00;;;;;;;;;;5035747;28;20490;-72
2022/05/05 01:16:37;;;;;;;335.93;91.37;;;;;;;;;;5035625;28;20458;-72
2022/05/05 01:19:04;;;;;;;331.73;86.00;;;;;;;;;;5035541;28;20458;-71
2022/05/05 01:21:34;;;;;;;341.60;87.57;;;;;;;;;;5035307;28;20757;-72
2022/05/05 01:24:01;;;;;;;336.93;89.77;;;;;;;;;;5035227;28;20478;-72
2022/05/05 01:29:15;;;;;;;216.30;82.57;;;;;;;;;;5028233;28;20441;-72
2022/05/05 01:31:44;;;;;;;351.20;90.87;;;;;;;;;;5035137;28;20459;-72
2022/05/05 01:34:11;;;;;;;342.27;89.87;;;;;;;;;;5034810;28;20478;-70
2022/05/05 01:36:41;;;;;;;314.87;89.90;;;;;;;;;;5034901;28;21052;-72
2022/05/05 01:39:09;;;;;;;342.70;89.07;;;;;;;;;;5035042;28;20977;-72
2022/05/05 01:41:37;;;;;;;347.07;88.60;;;;;;;;;;5035145;28;20851;-72
2022/05/05 01:44:05;;;;;;;350.40;90.03;;;;;;;;;;5035517;28;20879;-72
2022/05/05 01:46:32;;;;;;;352.47;89.20;;;;;;;;;;5035282;28;21046;-71
2022/05/05 01:49:00;;;;;;;336.03;90.00;;;;;;;;;;5035175;28;20458;-71
2022/05/05 01:51:28;;;;;;;322.47;88.23;;;;;;;;;;5034981;28;20469;-72
2022/05/05 01:53:57;;;;;;;348.33;89.10;;;;;;;;;;5035270;28;20913;-72
2022/05/05 01:56:25;;;;;;;350.77;91.67;;;;;;;;;;5027219;28;20537;-72
2022/05/05 01:58:53;;;;;;;348.50;89.27;;;;;;;;;;5035568;28;20475;-71
2022/05/05 02:01:21;;;;;;;353.23;89.20;;;;;;;;;;5034790;28;20474;-71
2022/05/05 02:03:51;;;;;;;332.57;85.93;;;;;;;;;;5029233;28;21010;-71
2022/05/05 02:06:22;;;;;;;350.90;86.27;;;;;;;;;;5034409;28;20454;-71
2022/05/05 02:08:50;;;;;;;361.60;87.27;;;;;;;;;;5035414;28;20523;-71
2022/05/05 02:11:19;;;;;;;347.20;88.20;;;;;;;;;;5034017;28;20492;-71
2022/05/05 02:13:47;;;;;;;353.10;91.23;;;;;;;;;;5029984;28;20478;-71
2022/05/05 02:16:14;;;;;;;354.30;89.37;;;;;;;;;;5038389;28;20482;-71
2022/05/05 02:18:42;;;;;;;336.33;82.30;;;;;;;;;;5038202;28;20462;-71
2022/05/05 02:21:10;;;;;;;359.40;89.77;;;;;;;;;;5029109;28;20524;-71
2022/05/05 02:23:38;;;;;;;358.03;89.57;;;;;;;;;;5030823;28;20473;-72
2022/05/05 02:26:06;;;;;;;357.10;88.33;;;;;;;;;;5038246;28;20761;-71
2022/05/05 02:28:35;;;;;;;346.87;84.77;;;;;;;;;;5038542;28;20470;-71
2022/05/05 02:31:03;;;;;;;345.67;85.37;;;;;;;;;;5038250;28;20490;-71
2022/05/05 02:33:30;;;;;;;345.93;82.53;;;;;;;;;;5038176;28;20541;-71
2022/05/05 02:38:43;;;;;;;355.37;88.77;;;;;;;;;;5030935;28;20477;-72
2022/05/05 02:41:13;;;;;;;349.27;89.27;;;;;;;;;;5037587;28;20451;-71
2022/05/05 02:43:43;;;;;;;351.57;90.33;;;;;;;;;;5037366;28;20551;-70
2022/05/05 02:46:10;;;;;;;351.57;88.40;;;;;;;;;;5037091;28;20446;-72
2022/05/05 02:48:38;;;;;;;354.63;88.47;;;;;;;;;;5029716;28;20458;-71
2022/05/05 02:51:06;;;;;;;349.70;87.20;;;;;;;;;;5037605;28;20466;-71
2022/05/05 02:56:19;;;;;;;340.20;86.80;;;;;;;;;;5037383;28;20464;-71
2022/05/05 02:58:48;;;;;;;349.30;83.77;;;;;;;;;;5037150;28;20545;-71
2022/05/05 03:01:16;;;;;;;347.67;85.30;;;;;;;;;;5037232;28;20552;-72
2022/05/05 03:03:44;;;;;;;347.17;83.90;;;;;;;;;;5037412;28;20459;-71
2022/05/05 03:06:12;;;;;;;352.27;86.97;;;;;;;;;;5036977;28;20581;-71
2022/05/05 03:08:44;;;;;;;340.97;84.57;;;;;;;;;;5036795;28;20465;-71
2022/05/05 03:11:12;;;;;;;351.60;89.07;;;;;;;;;;5036801;28;20462;-71
2022/05/05 03:13:40;;;;;;;346.80;82.80;;;;;;;;;;5036846;28;20549;-71
2022/05/05 03:16:09;;;;;;;347.20;83.90;;;;;;;;;;5037219;28;20558;-71
2022/05/05 03:18:40;;;;;;;350.10;85.50;;;;;;;;;;5029260;28;20495;-72
2022/05/05 03:21:08;;;;;;;351.97;88.00;;;;;;;;;;5036857;28;20466;-71
2022/05/05 03:23:36;;;;;;;348.70;85.73;;;;;;;;;;5036698;28;20536;-71
2022/05/05 03:26:03;;;;;;;345.80;83.67;;;;;;;;;;5037448;28;20566;-71
2022/05/05 03:28:32;;;;;;;352.13;88.97;;;;;;;;;;5036275;28;20554;-71
2022/05/05 03:30:59;;;;;;;348.70;91.30;;;;;;;;;;5035940;28;20462;-71
2022/05/05 03:33:29;;;;;;;343.90;83.47;;;;;;;;;;5037032;28;20451;-71
2022/05/05 03:35:57;;;;;;;338.40;81.37;;;;;;;;;;5029822;28;20580;-71
2022/05/05 03:38:24;;;;;;;346.07;86.03;;;;;;;;;;5036703;28;20450;-71
2022/05/05 03:40:52;;;;;;;343.30;83.03;;;;;;;;;;5037291;28;20552;-71
2022/05/05 03:43:20;;;;;;;347.33;86.50;;;;;;;;;;5036618;28;20548;-71
2022/05/05 03:45:49;;;;;;;345.00;86.83;;;;;;;;;;5036199;28;20473;-71
2022/05/05 03:48:17;;;;;;;343.77;85.10;;;;;;;;;;5036641;28;20911;-74
2022/05/05 03:50:46;;;;;;;345.20;83.53;;;;;;;;;;5031260;28;20947;-71
2022/05/05 03:53:14;;;;;;;338.23;82.13;;;;;;;;;;5036601;28;20525;-71
2022/05/05 03:55:42;;;;;;;338.53;83.27;;;;;;;;;;5035616;28;20489;-72
2022/05/05 03:58:10;;;;;;;337.17;83.77;;;;;;;;;;5028547;28;20532;-71
2022/05/05 04:00:40;;;;;;;338.57;86.53;;;;;;;;;;5035521;28;20476;-72
2022/05/05 04:06:02;;;;;;;342.37;91.03;;;;;;;;;;5036825;28;20490;-71
2022/05/05 04:08:31;;;;;;;332.37;83.57;;;;;;;;;;5036263;28;20525;-71
2022/05/05 04:11:01;;;;;;;343.43;92.27;;;;;;;;;;5036579;28;20466;-71
2022/05/05 04:13:29;;;;;;;340.90;93.00;;;;;;;;;;5035831;28;20986;-71
2022/05/05 04:15:56;;;;;;;342.07;86.00;;;;;;;;;;5035702;28;20584;-71
2022/05/05 04:18:27;;;;;;;342.70;84.60;;;;;;;;;;5036331;28;20529;-71
2022/05/05 04:20:55;;;;;;;341.83;84.13;;;;;;;;;;5036080;28;20471;-70
2022/05/05 04:23:24;;;;;;;343.37;86.37;;;;;;;;;;5036044;28;20467;-71
2022/05/05 04:25:52;;;;;;;333.67;84.83;;;;;;;;;;5034726;28;20544;-70
2022/05/05 04:28:21;;;;;;;339.67;87.10;;;;;;;;;;5036825;28;20501;-70
2022/05/05 04:30:48;;;;;;;347.20;86.27;;;;;;;;;;5036553;28;20808;-70
2022/05/05 04:33:18;;;;;;;346.07;84.40;;;;;;;;;;5035648;28;20822;-71
2022/05/05 04:35:47;;;;;;;343.17;83.90;;;;;;;;;;5034423;28;20771;-70
2022/05/05 04:38:15;;;;;;;348.77;87.17;;;;;;;;;;5035738;28;20455;-70
2022/05/05 04:40:48;;;;;;;347.20;87.77;;;;;;;;;;5034578;28;20466;-71
2022/05/05 04:43:15;;;;;;;340.80;85.83;;;;;;;;;;5028107;28;20462;-71
2022/05/05 04:45:44;;;;;;;345.77;86.80;;;;;;;;;;5034732;28;20474;-71
2022/05/05 04:48:12;;;;;;;336.90;82.80;;;;;;;;;;5034772;28;20459;-71
2022/05/05 04:50:40;;;;;;;342.37;84.37;;;;;;;;;;5034173;28;20463;-71
2022/05/05 04:53:16;;;;;;;349.23;91.20;;;;;;;;;;5034325;28;20497;-72
2022/05/05 04:55:46;;;;;;;345.67;89.37;;;;;;;;;;5032913;28;20564;-72
2022/05/05 04:58:19;;;;;;;350.20;92.57;;;;;;;;;;5040496;28;20461;-72
2022/05/05 05:01:00;;;;;;;352.37;93.10;;;;;;;;;;5040371;28;20578;-70
2022/05/05 05:03:49;;;;;;;352.27;91.27;;;;;;;;;;5039776;28;20505;-72
2022/05/05 05:06:27;;;;;;;354.30;96.70;;;;;;;;;;5035978;28;20478;-72
2022/05/05 05:08:56;;;;;;;357.77;99.30;;;;;;;;;;5035135;28;20874;-72
2022/05/05 05:11:34;;;;;;;367.90;106.93;;;;;;;;;;5033265;28;20482;-72
2022/05/05 05:14:11;;;;;;;359.60;100.73;;;;;;;;;;5032808;28;20755;-72
2022/05/05 05:16:40;;;;;;;370.90;109.20;;;;;;;;;;5033181;28;20510;-72
2022/05/05 05:22:11;;;;;;;364.30;100.77;;;;;;;;;;5029441;28;20491;-72
2022/05/05 05:24:39;;;;;;;369.17;108.90;;;;;;;;;;5026905;28;20564;-72
2022/05/05 05:27:11;;;;;;;364.17;105.20;;;;;;;;;;5031251;28;20941;-70
2022/05/05 05:29:45;;;;;;;369.80;110.87;;;;;;;;;;5022300;28;20477;-71
2022/05/05 05:32:14;;;;;;;370.77;110.20;;;;;;;;;;5029994;28;20464;-72
2022/05/05 05:34:45;;;;;;;379.63;106.30;;;;;;;;;;5029744;28;20494;-71
2022/05/05 05:37:22;;;;;;;375.60;113.80;;;;;;;;;;5027111;28;20450;-72
2022/05/05 05:39:55;;;;;;;380.37;121.53;;;;;;;;;;5025785;28;20469;-72
2022/05/05 05:42:32;;;;;;;379.33;112.17;;;;;;;;;;5022742;28;20509;-71
2022/05/05 05:45:00;;;;;;;371.77;114.47;;;;;;;;;;5029315;28;20560;-71
2022/05/05 05:47:34;;;;;;;375.63;116.70;;;;;;;;;;5031249;28;20478;-71
2022/05/05 05:50:05;;;;;;;376.67;124.53;;;;;;;;;;5032537;28;20887;-71
2022/05/05 05:52:33;;;;;;;368.03;111.23;;;;;;;;;;5033839;28;20454;-70
2022/05/05 05:55:05;;;;;;;391.83;131.20;;;;;;;;;;5033435;28;20486;-71
2022/05/05 05:57:52;;;;;;;375.53;118.20;;;;;;;;;;5033688;28;20485;-72
2022/05/05 06:00:21;;;;;;;377.03;116.17;;;;;;;;;;5033977;28;20480;-70
2022/05/05 06:05:34;;;;;;;366.00;106.33;;;;;;;;;;5034863;28;20449;-70
2022/05/05 06:08:02;;;;;;;375.47;114.87;;;;;;;;;;5035121;28;20446;-70
2022/05/05 06:10:31;;;;;;;385.80;125.07;;;;;;;;;;5034936;28;20882;-70
2022/05/05 06:12:59;;;;;;;382.77;122.57;;;;;;;;;;5034287;28;20472;-72
2022/05/05 06:15:29;;;;;;;358.93;115.13;;;;;;;;;;5031189;28;20491;-70
2022/05/05 06:17:57;;;;;;;363.73;103.03;;;;;;;;;;5031054;28;20470;-70
2022/05/05 06:20:25;;;;;;;366.90;108.23;;;;;;;;;;5035870;28;20469;-70
2022/05/05 06:22:53;;;;;;;365.93;103.53;;;;;;;;;;5034303;28;20470;-70
2022/05/05 06:25:23;;;;;;;368.00;101.77;;;;;;;;;;5027837;28;20851;-70
2022/05/05 06:28:04;;;;;;;368.77;103.10;;;;;;;;;;5035266;28;20473;-69
2022/05/05 06:30:37;;;;;;;371.90;106.50;;;;;;;;;;5035610;28;20500;-70
2022/05/05 06:33:05;;;;;;;369.73;97.97;;;;;;;;;;5036186;28;20462;-69
2022/05/05 06:35:33;;;;;;;359.30;95.80;;;;;;;;;;5035011;28;20482;-70
2022/05/05 06:38:01;;;;;;;367.03;98.10;;;;;;;;;;5034907;28;20464;-69
2022/05/05 06:40:29;;;;;;;369.43;103.50;;;;;;;;;;5034853;28;20458;-69
2022/05/05 06:42:59;;;;;;;376.97;104.60;;;;;;;;;;5033581;28;22013;-70
2022/05/05 06:45:29;;;;;;;374.07;100.87;;;;;;;;;;5035888;28;20481;-69
2022/05/05 06:47:59;;;;;;;300.03;101.13;;;;;;;;;;5035765;28;20746;-69
2022/05/05 06:50:28;;;;;;;369.30;103.50;;;;;;;;;;5034972;28;20497;-69
2022/05/05 06:53:00;;;;;;;341.33;99.27;;;;;;;;;;5036157;28;20768;-70
2022/05/05 06:55:28;;;;;;;293.10;98.60;;;;;;;;;;5035147;28;20493;-69
2022/05/05 06:57:58;;;;;;;320.73;102.00;;;;;;;;;;5036941;28;20879;-70
2022/05/05 07:01:51;;;;;;;254.93;99.57;;;;;;;;;;5034526;28;20462;-69
2022/05/05 07:03:16;;;;;;;278.03;106.07;;;;;;;;;;5035316;28;20467;-69
2022/05/05 07:05:43;;;;;;;366.00;104.43;;;;;;;;;;5034117;28;20470;-71
2022/05/05 07:08:11;;;;;;;359.47;99.87;;;;;;;;;;5026092;28;20589;-69
2022/05/05 07:10:53;;;;;;;369.73;105.53;;;;;;;;;;5033422;28;20895;-69
2022/05/05 07:13:24;;;;;;;364.77;108.30;;;;;;;;;;5028115;28;20500;-69
2022/05/05 07:15:52;;;;;;;361.50;100.67;;;;;;;;;;5035116;28;20540;-69
2022/05/05 07:18:22;;;;;;;368.20;103.63;;;;;;;;;;5033695;28;20461;-69
2022/05/05 07:20:51;;;;;;;368.50;106.77;;;;;;;;;;5032935;28;20482;-70
2022/05/05 07:23:24;;;;;;;329.77;116.97;;;;;;;;;;5033568;28;20521;-70
2022/05/05 07:25:52;;;;;;;371.33;111.63;;;;;;;;;;5033903;28;20462;-69
2022/05/05 07:28:20;;;;;;;373.37;108.37;;;;;;;;;;5032976;28;20466;-69
2022/05/05 07:31:02;;;;;;;324.50;104.40;;;;;;;;;;5027286;28;20485;-69
2022/05/05 07:33:35;;;;;;;365.77;99.97;;;;;;;;;;5031148;28;20468;-68
2022/05/05 07:36:03;;;;;;;374.80;109.70;;;;;;;;;;5033388;28;20612;-70
2022/05/05 07:38:31;;;;;;;366.70;106.70;;;;;;;;;;5036802;28;20892;-71
2022/05/05 07:40:59;;;;;;;268.77;108.17;;;;;;;;;;5033551;28;20474;-69
2022/05/05 07:43:28;;;;;;;356.47;113.53;;;;;;;;;;5033718;28;20796;-69
2022/05/05 07:45:56;;;;;;;381.33;118.27;;;;;;;;;;5026205;28;21040;-69
2022/05/05 07:48:25;;;;;;;373.23;120.93;;;;;;;;;;5032857;28;20466;-69
2022/05/05 07:50:55;;;;;;;364.83;116.27;;;;;;;;;;5032356;28;20564;-68
2022/05/05 07:53:24;;;;;;;375.70;122.17;;;;;;;;;;5031155;28;20462;-69
2022/05/05 07:55:52;;;;;;;374.33;116.17;;;;;;;;;;5034035;28;20539;-68
2022/05/05 07:58:19;;;;;;;347.20;118.70;;;;;;;;;;5033198;28;20466;-68
2022/05/05 08:00:53;;;;;;;377.57;127.27;;;;;;;;;;5033837;28;20458;-70
2022/05/05 08:03:23;;;;;;;378.83;118.87;;;;;;;;;;5033100;28;20457;-69
2022/05/05 08:05:52;;;;;;;375.57;120.77;;;;;;;;;;5033096;28;20851;-70
2022/05/05 08:08:26;;;;;;;356.30;121.47;;;;;;;;;;5034399;28;20462;-69
2022/05/05 08:10:58;;;;;;;370.27;116.33;;;;;;;;;;5033656;28;20740;-71
2022/05/05 08:13:26;;;;;;;359.53;123.20;;;;;;;;;;5033560;28;20485;-70
2022/05/05 08:15:54;;;;;;;337.50;121.30;;;;;;;;;;5032398;28;20928;-71
2022/05/05 08:18:24;;;;;;;350.23;122.03;;;;;;;;;;5019622;28;20494;-71
2022/05/05 08:20:52;;;;;;;366.10;126.03;;;;;;;;;;5031295;28;20596;-70
2022/05/05 08:23:20;;;;;;;325.10;131.17;;;;;;;;;;5029155;28;20466;-70
2022/05/05 08:28:40;;;;;;;377.27;133.87;;;;;;;;;;5028913;28;20453;-70
2022/05/05 08:31:16;;;;;;;319.70;129.67;;;;;;;;;;5031064;28;20468;-71
2022/05/05 08:33:55;;;;;;;371.83;124.77;;;;;;;;;;5032676;28;20745;-70
2022/05/05 08:36:26;;;;;;;386.07;136.07;;;;;;;;;;5026640;28;20513;-69
2022/05/05 08:38:58;;;;;;;363.77;134.23;;;;;;;;;;5033564;28;20458;-70
2022/05/05 08:41:33;;;;;;;335.47;124.90;;;;;;;;;;5035965;28;20465;-70
2022/05/05 08:44:02;;;;;;;363.63;126.67;;;;;;;;;;5033135;28;20454;-69
2022/05/05 08:46:33;;;;;;;360.87;137.57;;;;;;;;;;5032072;28;20573;-71
2022/05/05 08:49:05;;;;;;;341.13;130.20;;;;;;;;;;5034055;28;20507;-69
2022/05/05 08:51:45;;;;;;;385.00;133.27;;;;;;;;;;5033687;28;20463;-69
2022/05/05 08:54:16;;;;;;;369.90;135.30;;;;;;;;;;5033189;28;20999;-70
2022/05/05 08:56:45;;;;;;;384.70;136.57;;;;;;;;;;5032018;28;20489;-70
2022/05/05 08:59:28;;;;;;;310.80;146.30;;;;;;;;;;5023109;28;20466;-71
2022/05/05 09:02:16;;;;;;;315.67;142.87;;;;;;;;;;5032782;28;20754;-70
2022/05/05 09:04:52;;;;;;;370.23;143.73;;;;;;;;;;5021000;28;20450;-69
2022/05/05 09:07:21;;;;;;;322.80;140.70;;;;;;;;;;5028275;28;20793;-71
2022/05/05 09:09:51;;;;;;;337.43;138.00;;;;;;;;;;5028612;28;20454;-70
2022/05/05 09:12:23;;;;;;;349.60;149.00;;;;;;;;;;5032180;28;20458;-71
2022/05/05 09:15:14;;;;;;;354.57;145.20;;;;;;;;;;5024072;28;21098;-70
2022/05/05 09:17:43;;;;;;;389.57;144.00;;;;;;;;;;4996540;28;21200;-71
2022/05/05 09:20:13;;;;;;;382.63;140.60;;;;;;;;;;5029991;28;20532;-71
2022/05/05 09:22:55;;;;;;;388.63;148.03;;;;;;;;;;5036156;28;20581;-70
2022/05/05 09:25:26;;;;;;;381.60;138.07;;;;;;;;;;5035308;28;20896;-71
2022/05/05 09:28:23;;;;;;;396.87;155.63;;;;;;;;;;5037033;28;20462;-71
2022/05/05 09:30:52;;;;;;;380.87;139.43;;;;;;;;;;5032226;28;20523;-71
2022/05/05 09:33:37;;;;;;;364.83;153.23;;;;;;;;;;5035268;28;20988;-71
2022/05/05 09:36:10;;;;;;;379.00;152.53;;;;;;;;;;5035476;28;20481;-72
2022/05/05 09:38:55;;;;;;;374.57;149.13;;;;;;;;;;5036262;28;20472;-71
2022/05/05 09:41:25;;;;;;;381.37;154.80;;;;;;;;;;5036371;28;20484;-72
2022/05/05 09:46:44;;;;;;;396.93;159.93;;;;;;;;;;5020313;28;20731;-70
2022/05/05 09:49:23;;;;;;;386.27;159.53;;;;;;;;;;5034801;28;20714;-70
2022/05/05 09:57:42;;;;;;;382.93;163.53;;;;;;;;;;5034537;28;20490;-70
2022/05/05 10:00:43;;;;;;;376.47;156.50;;;;;;;;;;5033649;28;20555;-71
2022/05/05 10:05:59;;;;;;;372.63;158.97;;;;;;;;;;5030509;28;20477;-71
2022/05/05 10:08:34;;;;;;;387.83;165.80;;;;;;;;;;5035602;28;20485;-70
2022/05/05 10:11:03;;;;;;;386.70;163.13;;;;;;;;;;5027436;28;20458;-70
2022/05/05 10:13:32;;;;;;;386.83;179.07;;;;;;;;;;5032021;28;20537;-70
2022/05/05 10:16:14;;;;;;;386.60;148.60;;;;;;;;;;5034925;28;20482;-71
2022/05/05 10:18:50;;;;;;;389.67;159.30;;;;;;;;;;5025491;28;21027;-71
2022/05/05 10:21:29;;;;;;;367.27;164.40;;;;;;;;;;5025165;28;21018;-70
2022/05/05 10:24:17;;;;;;;385.63;150.40;;;;;;;;;;5035366;28;20863;-70
2022/05/05 10:26:56;;;;;;;397.97;165.03;;;;;;;;;;5035274;28;20516;-72
2022/05/05 10:30:00;;;;;;;;;;;;;;;;;;;;;
2022/05/05 10:32:56;;;;;;;391.27;177.00;;;;;;;;;;5018230;28;20469;-72
2022/05/05 10:35:25;;;;;;;389.00;153.77;;;;;;;;;;5031447;28;20454;-72
2022/05/05 10:37:56;;;;;;;398.43;172.37;;;;;;;;;;5040818;28;20553;-73
2022/05/05 10:40:27;;;;;;;404.93;173.63;;;;;;;;;;5031778;28;20772;-72
2022/05/05 10:42:59;;;;;;;388.23;156.70;;;;;;;;;;5035002;28;20915;-72
2022/05/05 10:45:32;;;;;;;415.30;189.37;;;;;;;;;;5034003;28;20435;-72
2022/05/05 10:48:18;;;;;;;407.67;172.97;;;;;;;;;;5034985;28;20489;-72
2022/05/05 10:50:53;;;;;;;411.13;183.87;;;;;;;;;;5034900;28;20443;-73
2022/05/05 10:53:52;;;;;;;404.40;169.23;;;;;;;;;;5034273;28;21194;-72
2022/05/05 10:56:31;;;;;;;406.70;183.83;;;;;;;;;;5033275;28;20492;-72
2022/05/05 10:59:10;;;;;;;405.90;180.97;;;;;;;;;;5019327;28;20473;-72
2022/05/05 11:02:01;;;;;;;406.37;184.70;;;;;;;;;;5031830;28;20474;-72
2022/05/05 11:04:40;;;;;;;411.83;189.17;;;;;;;;;;5033719;28;20466;-72
2022/05/05 11:07:32;;;;;;;411.10;191.40;;;;;;;;;;5032785;28;21339;-72
2022/05/05 11:10:02;;;;;;;400.13;167.70;;;;;;;;;;5035519;28;20454;-72
2022/05/05 11:12:39;;;;;;;419.97;188.37;;;;;;;;;;5032913;28;21057;-71
2022/05/05 11:23:51;;;;;;;370.57;194.93;;;;;;;;;;5030075;28;20466;-72
2022/05/05 11:26:21;;;;;;;394.60;199.73;;;;;;;;;;5023376;28;20470;-71
2022/05/05 11:28:58;;;;;;;389.40;207.80;;;;;;;;;;5027153;28;20813;-71
2022/05/05 11:31:30;;;;;;;389.37;217.10;;;;;;;;;;5027758;28;20902;-74
2022/05/05 11:34:00;;;;;;;387.97;199.43;;;;;;;;;;5032373;28;20466;-73
2022/05/05 11:36:28;;;;;;;393.23;213.70;;;;;;;;;;5027528;28;20487;-73
2022/05/05 11:38:56;;;;;;;406.17;211.07;;;;;;;;;;5024341;28;20473;-72
2022/05/05 11:41:26;;;;;;;414.27;216.93;;;;;;;;;;5033471;28;20562;-73
2022/05/05 11:46:44;;;;;;;421.17;225.50;;;;;;;;;;5039918;28;20566;-71
2022/05/05 11:49:13;;;;;;;402.03;204.23;;;;;;;;;;5028324;28;20465;-71
2022/05/05 11:51:43;;;;;;;384.13;200.03;;;;;;;;;;5031253;28;20485;-72
2022/05/05 11:54:12;;;;;;;418.53;244.27;;;;;;;;;;5030899;28;20538;-71
2022/05/05 11:56:49;;;;;;;407.03;218.80;;;;;;;;;;5031355;28;20490;-71
2022/05/05 12:02:05;;;;;;;415.83;241.63;;;;;;;;;;5028745;28;20927;-73
2022/05/05 12:04:36;;;;;;;414.13;219.73;;;;;;;;;;5026695;28;20528;-71
2022/05/05 12:07:08;;;;;;;422.87;241.93;;;;;;;;;;5031581;28;20469;-72
2022/05/05 12:09:36;;;;;;;403.33;225.50;;;;;;;;;;5028340;28;21080;-72
2022/05/05 12:12:22;;;;;;;416.23;246.23;;;;;;;;;;5030814;28;20504;-72
2022/05/05 12:14:57;;;;;;;419.63;227.53;;;;;;;;;;5037136;28;20472;-72
2022/05/05 12:17:29;;;;;;;413.87;216.67;;;;;;;;;;5032624;28;20496;-71
2022/05/05 12:19:58;;;;;;;411.73;212.13;;;;;;;;;;5032392;28;20833;-72
2022/05/05 12:22:30;;;;;;;416.63;223.47;;;;;;;;;;5031773;28;20481;-72
2022/05/05 12:25:14;;;;;;;423.23;229.77;;;;;;;;;;5032632;28;20536;-71
2022/05/05 12:27:48;;;;;;;421.60;232.23;;;;;;;;;;5031419;28;20502;-70
2022/05/05 12:30:32;;;;;;;424.40;239.57;;;;;;;;;;5032658;28;20816;-71
2022/05/05 12:33:02;;;;;;;423.43;243.53;;;;;;;;;;5031308;28;20478;-71
2022/05/05 12:35:46;;;;;;;423.73;252.23;;;;;;;;;;5033543;28;20778;-71
2022/05/05 12:38:16;;;;;;;427.10;258.13;;;;;;;;;;5031030;28;20481;-71
2022/05/05 12:40:48;;;;;;;416.77;222.17;;;;;;;;;;5026409;28;20552;-73
2022/05/05 12:43:20;;;;;;;420.87;225.57;;;;;;;;;;5030247;28;20466;-73
2022/05/05 12:45:51;;;;;;;424.57;248.03;;;;;;;;;;5030664;28;20486;-70
2022/05/05 12:48:27;;;;;;;422.57;240.37;;;;;;;;;;5032088;28;20805;-73
2022/05/05 12:50:55;;;;;;;427.47;249.67;;;;;;;;;;5028280;28;20453;-72
2022/05/05 13:01:46;;;;;;;420.83;242.73;;;;;;;;;;5027042;28;21512;-73
2022/05/05 13:04:16;;;;;;;410.00;260.63;;;;;;;;;;5033278;28;20506;-73
2022/05/05 13:06:48;;;;;;;414.20;244.77;;;;;;;;;;5028315;28;20920;-72
2022/05/05 13:09:17;;;;;;;426.93;285.73;;;;;;;;;;5022202;28;20886;-71
2022/05/05 13:11:51;;;;;;;413.90;256.03;;;;;;;;;;5030352;28;20458;-72
2022/05/05 13:14:23;;;;;;;334.60;297.60;;;;;;;;;;5024927;28;20799;-71
2022/05/05 13:20:00;;;;;;;415.53;229.23;;;;;;;;;;5006586;28;20492;-73
2022/05/05 13:22:32;;;;;;;421.47;229.37;;;;;;;;;;5028106;28;20532;-73
2022/05/05 13:25:01;;;;;;;434.33;284.47;;;;;;;;;;5026169;28;20471;-72
2022/05/05 13:27:32;;;;;;;421.93;247.97;;;;;;;;;;5026427;28;20474;-72
2022/05/05 13:30:03;;;;;;;413.67;288.77;;;;;;;;;;5030627;28;20516;-72
2022/05/05 13:32:40;;;;;;;428.17;279.80;;;;;;;;;;5028264;28;20458;-72
2022/05/05 13:35:18;;;;;;;413.10;275.83;;;;;;;;;;5027483;28;20584;-72
2022/05/05 13:37:46;;;;;;;437.47;280.57;;;;;;;;;;5025991;28;20492;-72
2022/05/05 13:40:14;;;;;;;435.47;272.87;;;;;;;;;;5032301;28;20499;-72
2022/05/05 13:42:42;;;;;;;438.27;307.63;;;;;;;;;;5027329;28;20470;-73
2022/05/05 13:45:18;;;;;;;424.50;256.63;;;;;;;;;;5030987;28;20465;-73
2022/05/05 13:47:47;;;;;;;440.10;297.87;;;;;;;;;;5021730;28;20516;-73
2022/05/05 13:50:17;;;;;;;440.00;285.87;;;;;;;;;;5026086;28;20479;-72
2022/05/05 13:52:46;;;;;;;427.97;266.57;;;;;;;;;;5026022;28;20840;-72
2022/05/05 13:55:17;;;;;;;435.90;284.47;;;;;;;;;;5028979;28;20470;-71
2022/05/05 13:57:48;;;;;;;421.43;289.40;;;;;;;;;;5027114;28;20527;-73
2022/05/05 14:03:18;;;;;;;430.90;275.77;;;;;;;;;;5031534;28;20553;-72
2022/05/05 14:05:57;;;;;;;435.23;294.00;;;;;;;;;;5025750;28;20463;-72
2022/05/05 14:14:04;;;;;;;416.10;246.80;;;;;;;;;;5036909;28;20667;-73
2022/05/05 14:16:39;;;;;;;427.70;280.03;;;;;;;;;;5035075;28;20934;-73
2022/05/05 14:19:07;;;;;;;426.93;291.30;;;;;;;;;;5038157;28;21129;-72
2022/05/05 14:21:35;;;;;;;424.77;261.37;;;;;;;;;;5032250;28;20466;-72
2022/05/05 14:24:09;;;;;;;427.63;288.43;;;;;;;;;;5032787;28;20462;-74
2022/05/05 14:26:37;;;;;;;419.87;272.43;;;;;;;;;;5029634;28;20455;-72
2022/05/05 14:29:11;;;;;;;418.63;260.20;;;;;;;;;;5032874;28;20584;-73
2022/05/05 14:31:43;;;;;;;424.13;250.37;;;;;;;;;;5030684;28;20462;-73
2022/05/05 14:34:11;;;;;;;423.23;245.80;;;;;;;;;;5032535;28;20472;-73
2022/05/05 14:36:46;;;;;;;433.30;274.67;;;;;;;;;;5036545;28;20469;-73
2022/05/05 14:39:27;;;;;;;421.80;294.20;;;;;;;;;;5032655;28;20492;-74
2022/05/05 14:42:03;;;;;;;413.93;243.17;;;;;;;;;;5028908;28;20478;-73
2022/05/05 14:44:51;;;;;;;417.60;314.97;;;;;;;;;;5031130;28;20470;-73
2022/05/05 14:47:33;;;;;;;416.17;298.57;;;;;;;;;;5031814;28;20902;-73
2022/05/05 14:50:07;;;;;;;404.93;277.77;;;;;;;;;;5027271;28;20502;-72
2022/05/05 14:52:44;;;;;;;421.80;287.03;;;;;;;;;;5033601;28;20827;-72
2022/05/05 14:55:18;;;;;;;394.23;262.10;;;;;;;;;;5030953;28;20454;-73
2022/05/05 14:57:49;;;;;;;397.90;265.20;;;;;;;;;;5033358;28;20516;-73
2022/05/05 15:00:18;;;;;;;435.23;304.90;;;;;;;;;;5033059;28;20458;-72
2022/05/05 15:03:05;;;;;;;332.73;294.70;;;;;;;;;;5033234;28;20463;-72
2022/05/05 15:05:35;;;;;;;419.60;287.27;;;;;;;;;;5029551;28;20480;-72
2022/05/05 15:08:04;;;;;;;435.07;310.20;;;;;;;;;;5033286;28;20490;-74
2022/05/05 15:10:54;;;;;;;423.63;282.43;;;;;;;;;;5032060;28;20565;-73
2022/05/05 15:13:25;;;;;;;425.93;312.17;;;;;;;;;;5021257;28;20870;-72
2022/05/05 15:15:53;;;;;;;419.53;307.47;;;;;;;;;;5033618;28;20545;-73
2022/05/05 15:18:43;;;;;;;409.23;273.10;;;;;;;;;;5033429;28;20622;-73
2022/05/05 15:21:34;;;;;;;429.03;309.63;;;;;;;;;;5033161;28;20493;-72
2022/05/05 15:27:22;;;;;;;403.13;322.43;;;;;;;;;;5037452;28;20466;-73
2022/05/05 15:29:54;;;;;;;412.83;297.83;;;;;;;;;;5031861;28;20750;-72
2022/05/05 15:32:34;;;;;;;421.43;326.70;;;;;;;;;;5035893;28;21105;-73
2022/05/05 15:35:04;;;;;;;421.43;312.57;;;;;;;;;;5033573;28;20461;-73
2022/05/05 15:37:41;;;;;;;423.13;321.90;;;;;;;;;;5034326;28;20968;-74